Lähialueen lentokenttien sää

 

EFLP - Lappeenranta, Finland
Distance from station: I 35km
Päivitetty: 17/01/2019 19:20
Vaihtelevaa
Vaihtelevaa
 Tuulen suunta P
Tuuli: P 17 km/h
Lämpötila: -8°C
Wind Chill: -14°C
Kastepiste: -9°C
Kosteus: 93%
Ilmanpaine: 979 hPa
Clouds: Vaihtelevaa
Visibility: 10 km
Cloud details: Vaihtelevaa 183 m
2019/01/17 17:20 EFLP 171720Z AUTO 35009KT 320V020 9999 OVC006 M08/M09 Q0979
EFUT - Utti (fin-Afb), Finland
Distance from station: LO 42km
Päivitetty: 17/01/2019 19:20
Light snow, Showers, Vaihtelevaa
Light snow, Showers, Vaihtelevaa
 Tuulen suunta PLU
Tuuli: PLU 19 km/h
Lämpötila: -9°C
Wind Chill: -16°C
Kastepiste: -11°C
Kosteus: 86%
Ilmanpaine: 981 hPa
Yhteenveto: Light snow, Showers
Clouds: Vaihtelevaa
Visibility: 10 km
Cloud details: Vaihtelevaa 335 m
2019/01/17 17:20 EFUT 171720Z AUTO 33010KT 9999 -SHSN OVC011 M09/M11 Q0981
 
EFMI - Mikkeli, Finland
Distance from station: P 66km
Päivitetty: 17/01/2019 19:20
Light snow, Vaihtelevaa
Light snow, Vaihtelevaa
 Tuulen suunta varies
Tuuli: varies 7 km/h
Lämpötila: -11°C
Wind Chill: -16°C
Kastepiste: -13°C
Kosteus: 85%
Ilmanpaine: 982 hPa
Yhteenveto: Light Snow
Clouds: Vaihtelevaa
Visibility: 5 km
Cloud details: Few Clouds 1189 m
Vaihtelevaa 1707 m
2019/01/17 17:20 EFMI 171720Z AUTO VRB04KT 5000 -SN FEW039 OVC056 M11/M13 Q0982
EFVR - Varkaus, Finland
Distance from station: P 117km
Päivitetty: 15/04/2016 08:50
NOT Current
Selkeätä
Selkeätä
 Tuulen suunta PLU
Tuuli: PLU 15 km/h
Lämpötila: -1°C
Wind Chill: -6°C
Kastepiste: -8°C
Kosteus: 59%
Ilmanpaine: 1005 hPa
Yhteenveto: Selkeätä
Visibility: greater than 10 km
2016/04/15 05:50 EFVR 150550Z AUTO 33008KT CAVOK M01/M08 Q1005
 
EFSA - Savonlinna (aut), Finland
Distance from station: KO 119km
Päivitetty: 17/01/2019 19:20
Light snow, Vaihtelevaa
Light snow, Vaihtelevaa
 Tuulen suunta LU
Tuuli: LU 11 km/h
Lämpötila: -11°C
Wind Chill: -17°C
Kastepiste: -13°C
Kosteus: 85%
Ilmanpaine: 981 hPa
Yhteenveto: Light Snow
Clouds: Vaihtelevaa
Visibility: 10 km
Cloud details: Enimmäkseen pilvistä 610 m
Vaihtelevaa 1890 m
2019/01/17 17:20 EFSA 171720Z AUTO 32006KT 9999 -SN BKN020 OVC062 M11/M13 Q0981
EFHA - Halli (fin-Afb), Finland
Distance from station: LLU 164km
Päivitetty: 17/01/2019 19:20
Light snow, Vaihtelevaa
Light snow, Vaihtelevaa
 Tuulen suunta LU
Tuuli: LU 17 km/h
Lämpötila: -10°C
Wind Chill: -17°C
Kastepiste: -12°C
Kosteus: 85%
Ilmanpaine: 985 hPa
Yhteenveto: Light Snow
Clouds: Vaihtelevaa
Visibility: 7 km
Cloud details: Vaihtelevaa 305 m
2019/01/17 17:20 EFHA 171720Z AUTO 32009KT 7000 -SN OVC010 M10/M12 Q0985
 
EFHK - Helsinki/Vantaa, Finland
Distance from station: LLO 165km
Päivitetty: 17/01/2019 19:20
Light snow, Enimmäkseen pilvistä
Light snow, Enimmäkseen pilvistä
 Tuulen suunta LU
Tuuli: LU 22 km/h
Lämpötila: -8°C
Wind Chill: -16°C
Kastepiste: -10°C
Kosteus: 86%
Ilmanpaine: 984 hPa
Yhteenveto: Light Snow
Clouds: Enimmäkseen pilvistä
Visibility: 3 km
Cloud details: Few Clouds 457 m
Enimmäkseen pilvistä 1067 m
2019/01/17 17:20 EFHK 171720Z 31012KT 3000 -SN FEW015 BKN035 M08/M10 Q0984 BECMG 2000 SN
EFHF - Helsinki/Malmi, Finland
Distance from station: LO 165km
Päivitetty: 06/03/2017 17:50
NOT Current
Selkeätä
Selkeätä
 Tuulen suunta KO
Tuuli: KO 11 km/h
Lämpötila: -2°C
Wind Chill: -6°C
Kastepiste: -11°C
Kosteus: 51%
Ilmanpaine: 1021 hPa
Yhteenveto: Selkeätä
Visibility: greater than 10 km
2017/03/06 15:50 EFHF 061550Z 04006KT 330V100 CAVOK M02/M11 Q1021
 
EFJY - Jyvaskyla (mil/C, Finland
Distance from station: LU 170km
Päivitetty: 17/01/2019 19:20
Light snow, Vaihtelevaa
Light snow, Vaihtelevaa
 Tuulen suunta PLU
Tuuli: PLU 13 km/h
Lämpötila: -10°C
Wind Chill: -16°C
Kastepiste: -12°C
Kosteus: 85%
Ilmanpaine: 984 hPa
Yhteenveto: Light Snow
Clouds: Vaihtelevaa
Visibility: 10 km
Cloud details: Vaihtelevaa 244 m
2019/01/17 17:20 EFJY 171720Z AUTO 34007KT 9999 -SN OVC008 M10/M12 Q0984